Time;durP1;ratioP1;P1;durP2;ratioP2;P2;SDS_P1;SDS_P2;PMS_P1;PMS_P2;Temp;Humidity;BMP_temperature;BMP_pressure;BME280_temperature;BME280_humidity;BME280_pressure;Samples;Min_cycle;Max_cycle;Signal;HPM_P1;HPM_P2
2023/09/27 00:02:10;;;;;;;;;16.33;16.33;;;;;20.06;61.57;101231.22;5077297;28;45389;-81
2023/09/27 00:04:35;;;;;;;;;15.00;15.00;;;;;19.97;61.79;101227.44;5076641;28;59783;-81
2023/09/27 00:07:01;;;;;;;;;19.00;16.33;;;;;20.01;61.92;101245.06;5077753;28;45581;-82
2023/09/27 00:09:26;;;;;;;;;14.33;14.33;;;;;19.85;62.03;101228.47;5076552;28;46990;-82
2023/09/27 00:11:51;;;;;;;;;18.00;17.67;;;;;19.72;62.19;101198.13;5077694;28;45439;-80
2023/09/27 00:14:17;;;;;;;;;17.00;14.33;;;;;19.76;62.20;101201.41;5077970;28;45345;-80
2023/09/27 00:16:42;;;;;;;;;18.00;17.00;;;;;19.95;61.83;101234.81;5078014;28;59816;-81
2023/09/27 00:19:07;;;;;;;;;13.67;12.00;;;;;19.89;62.14;101221.81;5076437;28;45346;-82
2023/09/27 00:21:33;;;;;;;;;16.33;16.00;;;;;19.95;61.77;101226.72;5077322;28;45445;-83
2023/09/27 00:23:58;;;;;;;;;13.33;13.33;;;;;19.95;62.08;101239.38;5076920;28;45293;-81
2023/09/27 00:26:24;;;;;;;;;15.67;15.67;;;;;19.88;62.71;101244.41;5077236;27;45181;-84
2023/09/27 00:28:49;;;;;;;;;15.33;14.00;;;;;19.74;62.65;101228.53;5076358;27;45272;-81
2023/09/27 00:31:14;;;;;;;;;15.00;13.33;;;;;19.69;62.64;101225.38;5056420;28;45215;-82
2023/09/27 00:33:39;;;;;;;;;12.67;12.67;;;;;19.80;62.92;101225.34;5056789;28;45388;-83
2023/09/27 00:36:05;;;;;;;;;14.33;14.00;;;;;19.82;62.59;101231.44;5056880;28;45585;-82
2023/09/27 00:38:31;;;;;;;;;19.00;15.33;;;;;19.83;62.54;101240.41;5066777;28;45250;-84
2023/09/27 00:40:57;;;;;;;;;14.00;11.33;;;;;19.71;62.40;101221.56;5076267;28;45356;-82
2023/09/27 00:43:30;;;;;;;;;15.00;13.67;;;;;19.84;62.66;101220.53;5076616;27;45942;-82
2023/09/27 00:46:04;;;;;;;;;11.67;10.67;;;;;19.80;62.46;101209.13;5077802;28;45254;-83
2023/09/27 00:48:31;;;;;;;;;13.00;13.00;;;;;19.88;62.55;101214.72;5075959;27;46391;-81
2023/09/27 00:50:57;;;;;;;;;12.67;12.67;;;;;19.65;62.57;101178.03;5076083;27;45262;-86
2023/09/27 00:53:25;;;;;;;;;11.67;11.67;;;;;19.66;62.58;101190.53;5075667;27;45729;-82
2023/09/27 00:55:51;;;;;;;;;16.33;13.67;;;;;19.79;62.51;101223.59;5075836;28;45421;-85
2023/09/27 00:58:19;;;;;;;;;14.00;13.67;;;;;19.68;62.52;101207.47;5076327;28;46136;-86
2023/09/27 01:00:46;;;;;;;;;12.67;12.33;;;;;19.78;62.87;101227.28;5077440;27;45466;-82
2023/09/27 01:03:13;;;;;;;;;16.67;16.67;;;;;19.68;62.84;101212.88;5074920;27;45418;-82
2023/09/27 01:05:38;;;;;;;;;12.33;12.33;;;;;19.60;63.35;101208.09;5077673;28;45828;-81
2023/09/27 01:08:05;;;;;;;;;1.00;1.00;;;;;19.65;63.83;101210.41;5078317;28;46217;-88
2023/09/27 01:10:30;;;;;;;;;12.33;12.33;;;;;19.58;63.38;101195.75;5078367;27;45435;-82
2023/09/27 01:12:56;;;;;;;;;14.00;12.67;;;;;19.67;63.52;101208.47;5081230;27;45344;-83
2023/09/27 01:15:21;;;;;;;;;9.33;9.33;;;;;19.68;63.29;101202.94;5082827;27;45470;-83
2023/09/27 01:17:57;;;;;;;;;16.00;12.67;;;;;19.64;63.63;101206.00;5084695;28;46321;-80
2023/09/27 01:20:23;;;;;;;;;12.00;11.00;;;;;19.53;63.72;101184.44;5086523;27;45455;-84
2023/09/27 01:22:56;;;;;;;;;11.67;10.33;;;;;19.57;64.06;101208.38;5087611;27;45394;-82
2023/09/27 01:25:24;;;;;;;;;9.00;9.00;;;;;19.53;64.23;101214.09;5086340;27;45483;-83
2023/09/27 01:27:51;;;;;;;;;15.33;14.00;;;;;19.43;64.10;101206.81;5085774;28;47507;-83
2023/09/27 01:30:16;;;;;;;;;14.33;12.33;;;;;19.38;64.36;101206.31;5080524;28;45259;-85
2023/09/27 01:32:41;;;;;;;;;10.33;9.33;;;;;19.31;64.91;101212.34;5087416;28;63007;-82
2023/09/27 01:35:07;;;;;;;;;18.33;12.00;;;;;19.36;64.62;101227.16;5081121;27;62323;-86
2023/09/27 01:37:33;;;;;;;;;15.33;14.67;;;;;19.31;64.43;101212.34;5081296;27;45217;-86
2023/09/27 01:39:58;;;;;;;;;12.67;11.33;;;;;19.33;64.65;101205.84;5077222;27;45260;-82
2023/09/27 01:42:24;;;;;;;;;15.00;12.67;;;;;19.20;64.74;101188.97;5075860;27;45316;-82
2023/09/27 01:44:49;;;;;;;;;14.33;12.33;;;;;19.25;64.87;101197.53;5075773;27;45447;-82
2023/09/27 01:47:14;;;;;;;;;12.00;11.33;;;;;19.24;64.57;101190.41;5074970;27;46497;-80
2023/09/27 01:49:40;;;;;;;;;14.33;13.00;;;;;19.36;64.76;101208.28;5075431;28;45483;-81
2023/09/27 01:52:05;;;;;;;;;13.67;10.67;;;;;19.37;65.06;101215.38;5075476;28;45341;-82
2023/09/27 01:54:30;;;;;;;;;12.33;11.00;;;;;19.35;65.14;101236.25;5075866;27;45550;-82
2023/09/27 01:56:56;;;;;;;;;15.00;15.00;;;;;19.24;65.34;101205.75;5075417;28;46062;-81
2023/09/27 01:59:21;;;;;;;;;10.00;10.00;;;;;19.22;65.85;101213.97;5074371;28;55167;-80
2023/09/27 02:01:46;;;;;;;;;17.67;17.00;;;;;19.22;65.94;101222.06;5075336;28;45316;-81
2023/09/27 02:04:12;;;;;;;;;15.00;15.00;;;;;19.16;66.46;101219.88;5075843;28;45443;-81
2023/09/27 02:06:37;;;;;;;;;14.33;13.33;;;;;19.20;66.34;101231.25;5078587;28;45441;-82
2023/09/27 02:09:03;;;;;;;;;18.00;15.00;;;;;19.17;66.50;101221.59;5078092;27;45542;-81
2023/09/27 02:11:29;;;;;;;;;10.67;9.67;;;;;19.06;66.93;101200.91;5078998;27;45367;-82
2023/09/27 02:13:56;;;;;;;;;20.33;16.00;;;;;19.06;67.44;101216.22;5078977;27;45242;-82
2023/09/27 02:16:21;;;;;;;;;17.00;17.00;;;;;19.11;67.02;101230.16;5077276;28;47102;-86
2023/09/27 02:18:48;;;;;;;;;22.33;18.67;;;;;19.06;67.47;101218.91;5078841;27;45334;-80
2023/09/27 02:21:14;;;;;;;;;24.00;19.67;;;;;18.84;67.55;101185.59;5078418;27;45353;-80
2023/09/27 02:23:39;;;;;;;;;22.00;20.33;;;;;18.89;67.46;101189.78;5077698;28;45686;-83
2023/09/27 02:26:05;;;;;;;;;16.00;13.00;;;;;19.07;67.40;101209.84;5078248;27;45340;-80
2023/09/27 02:28:30;;;;;;;;;22.67;18.00;;;;;19.10;67.29;101202.34;5078241;27;45575;-80
2023/09/27 02:30:58;;;;;;;;;20.67;17.00;;;;;19.08;67.40;101203.47;5077490;27;45393;-82
2023/09/27 02:33:25;;;;;;;;;17.00;16.00;;;;;19.03;67.98;101192.22;5078428;27;45616;-82
2023/09/27 02:35:50;;;;;;;;;20.67;18.33;;;;;18.76;68.18;101146.81;5078048;27;46415;-80
2023/09/27 02:38:15;;;;;;;;;18.00;17.33;;;;;18.99;68.33;101207.75;5077328;28;51734;-81
2023/09/27 02:40:42;;;;;;;;;22.67;21.00;;;;;18.91;68.73;101201.28;5078622;27;45246;-81
2023/09/27 02:43:07;;;;;;;;;22.00;17.67;;;;;18.90;69.06;101208.53;5094118;27;45540;-83
2023/09/27 02:45:34;;;;;;;;;22.33;20.00;;;;;18.79;68.96;101205.84;5077624;27;55685;-83
2023/09/27 02:48:00;;;;;;;;;20.33;18.00;;;;;18.85;68.89;101208.88;5077699;27;45383;-82
2023/09/27 02:50:25;;;;;;;;;24.67;23.67;;;;;18.43;69.36;101150.34;5077881;27;45344;-82
2023/09/27 02:52:51;;;;;;;;;21.00;18.00;;;;;18.77;69.80;101213.19;5077359;28;57311;-81
2023/09/27 02:55:16;;;;;;;;;32.00;28.00;;;;;18.75;69.74;101212.44;5077673;28;54463;-81
2023/09/27 02:57:42;;;;;;;;;32.00;30.00;;;;;18.69;70.25;101221.88;5076385;28;45402;-83
2023/09/27 03:00:08;;;;;;;;;35.33;30.00;;;;;18.66;70.12;101211.34;5077413;27;45274;-82
2023/09/27 03:02:34;;;;;;;;;27.33;25.67;;;;;18.68;70.18;101216.63;5075572;28;45635;-81
2023/09/27 03:04:59;;;;;;;;;38.33;33.00;;;;;18.55;70.64;101193.31;5075233;27;45495;-81
2023/09/27 03:07:24;;;;;;;;;35.67;32.67;;;;;18.51;70.78;101185.63;5077064;28;57087;-81
2023/09/27 03:09:50;;;;;;;;;36.00;30.33;;;;;18.60;70.97;101203.72;5076609;28;60606;-81
2023/09/27 03:12:16;;;;;;;;;41.67;34.00;;;;;18.46;71.27;101193.19;5077985;27;45861;-81
2023/09/27 03:14:41;;;;;;;;;36.00;33.00;;;;;18.55;71.13;101204.09;5076486;28;46175;-80
2023/09/27 03:17:07;;;;;;;;;43.00;34.67;;;;;18.56;71.52;101205.81;5076982;28;45368;-81
2023/09/27 03:19:32;;;;;;;;;38.00;30.67;;;;;18.45;71.42;101188.78;5077380;27;45436;-80
2023/09/27 03:21:58;;;;;;;;;35.67;31.67;;;;;18.39;71.38;101175.81;5077407;28;46341;-82
2023/09/27 03:24:25;;;;;;;;;39.33;34.67;;;;;18.51;70.71;101185.63;5077253;27;45845;-81
2023/09/27 03:26:50;;;;;;;;;36.00;33.00;;;;;18.36;70.68;101152.69;5077175;28;45385;-79
2023/09/27 03:29:16;;;;;;;;;38.00;32.33;;;;;18.54;70.63;101174.59;5077289;27;45476;-81
2023/09/27 03:31:41;;;;;;;;;36.33;32.00;;;;;18.56;70.48;101172.63;5077391;28;45298;-81
2023/09/27 03:34:06;;;;;;;;;38.00;33.00;;;;;18.59;70.81;101183.16;5076755;28;50382;-80
2023/09/27 03:36:32;;;;;;;;;33.67;29.67;;;;;18.38;71.02;101152.56;5077202;28;45447;-81
2023/09/27 03:38:57;;;;;;;;;36.00;30.00;;;;;18.56;70.99;101172.63;5077145;27;45317;-81
2023/09/27 03:41:22;;;;;;;;;36.67;33.33;;;;;18.43;70.54;101144.97;5076798;28;62114;-81
2023/09/27 03:43:50;;;;;;;;;30.00;28.33;;;;;18.57;70.74;101168.94;5079237;27;45329;-80
2023/09/27 03:46:15;;;;;;;;;33.00;29.67;;;;;18.40;71.05;101139.84;5079948;27;45303;-81
2023/09/27 03:48:41;;;;;;;;;35.00;30.00;;;;;18.48;70.74;101164.28;5081846;28;45481;-82
2023/09/27 03:51:06;;;;;;;;;30.00;25.33;;;;;18.44;70.63;101161.00;5078210;28;45635;-81
2023/09/27 03:53:33;;;;;;;;;32.00;29.00;;;;;18.31;70.63;101129.78;5078535;28;56371;-82
2023/09/27 03:55:59;;;;;;;;;32.00;30.00;;;;;18.54;70.50;101164.66;5079077;27;45482;-83
2023/09/27 03:58:24;;;;;;;;;24.00;21.00;;;;;18.20;71.02;101111.78;5078566;27;45483;-80
2023/09/27 04:00:49;;;;;;;;;30.33;27.33;;;;;18.52;70.65;101160.41;5075833;28;57410;-83
2023/09/27 04:03:16;;;;;;;;;33.00;30.00;;;;;18.53;70.60;101156.72;5077627;27;46016;-80
2023/09/27 04:05:42;;;;;;;;;31.00;30.00;;;;;18.52;70.69;101160.41;5077042;27;45396;-81
2023/09/27 04:08:07;;;;;;;;;33.33;29.00;;;;;18.44;70.69;101146.66;5077063;27;45362;-82
2023/09/27 04:10:33;;;;;;;;;31.67;30.33;;;;;18.47;70.62;101147.28;5076341;27;45348;-82
2023/09/27 04:12:59;;;;;;;;;33.00;28.00;;;;;18.51;71.12;101156.00;5077158;27;45400;-81
2023/09/27 04:15:24;;;;;;;;;28.67;25.67;;;;;18.47;71.10;101133.81;5077045;27;45313;-86
2023/09/27 04:17:50;;;;;;;;;31.67;28.67;;;;;18.51;71.01;101146.06;5076020;28;45559;-81
2023/09/27 04:20:16;;;;;;;;;30.33;28.67;;;;;18.49;70.81;101144.47;5076343;27;46785;-82
2023/09/27 04:22:47;;;;;;;;;25.33;23.00;;;;;18.43;71.63;101147.66;5076693;27;45984;-81
2023/09/27 04:25:14;;;;;;;;;27.67;27.00;;;;;18.42;71.68;101143.25;5076035;27;45262;-83
2023/09/27 04:27:46;;;;;;;;;35.67;30.33;;;;;18.27;71.84;101132.72;5075901;28;45419;-81
2023/09/27 04:30:19;;;;;;;;;20.00;19.33;;;;;18.40;71.25;101153.28;5076185;28;45335;-83
2023/09/27 04:32:50;;;;;;;;;16.33;16.33;;;;;18.41;71.10;101141.53;5076520;27;45375;-84
2023/09/27 04:35:16;;;;;;;;;16.67;14.33;;;;;18.37;71.02;101137.38;5075500;28;46183;-85
2023/09/27 04:37:41;;;;;;;;;15.00;15.00;;;;;18.36;70.93;101128.47;5076874;27;45357;-84
2023/09/27 04:40:14;;;;;;;;;13.33;13.33;;;;;18.20;70.97;101106.41;5077169;27;45605;-84
2023/09/27 04:42:41;;;;;;;;;15.00;13.33;;;;;18.25;71.23;101132.00;5077543;27;46601;-84
2023/09/27 04:45:07;;;;;;;;;14.67;13.00;;;;;18.12;71.79;101122.34;5076670;27;45311;-83
2023/09/27 04:47:33;;;;;;;;;13.33;11.33;;;;;18.12;71.92;101131.25;5076642;27;45454;-82
2023/09/27 04:49:58;;;;;;;;;14.00;12.67;;;;;17.98;71.72;101124.28;5070502;28;45504;-82
2023/09/27 04:52:24;;;;;;;;;15.33;11.33;;;;;18.05;71.31;101130.00;5071670;28;54013;-80
2023/09/27 04:54:59;;;;;;;;;12.00;11.00;;;;;17.77;71.75;101093.66;5076559;28;45348;-82
2023/09/27 04:57:25;;;;;;;;;12.67;11.00;;;;;17.92;71.72;101119.34;5076317;27;45343;-82
2023/09/27 04:59:53;;;;;;;;;13.00;10.67;;;;;17.80;71.89;101104.16;5075753;27;45598;-81
2023/09/27 05:02:19;;;;;;;;;15.67;13.67;;;;;17.80;71.98;101103.31;5071127;28;46418;-82
2023/09/27 05:04:46;;;;;;;;;15.33;14.00;;;;;17.64;72.34;101084.78;5076196;27;45372;-84
2023/09/27 05:07:11;;;;;;;;;16.33;14.33;;;;;17.72;72.40;101090.47;5075330;27;45462;-81
2023/09/27 05:09:36;;;;;;;;;15.00;15.00;;;;;17.65;72.61;101094.56;5074984;28;45436;-84
2023/09/27 05:12:02;;;;;;;;;10.67;10.67;;;;;17.75;72.72;101116.28;5074379;28;49648;-80
2023/09/27 05:14:28;;;;;;;;;14.67;14.33;;;;;17.59;73.07;101095.94;5076211;27;45237;-82
2023/09/27 05:16:54;;;;;;;;;14.67;13.67;;;;;17.56;72.92;101098.81;5075979;27;45416;-81
2023/09/27 05:19:19;;;;;;;;;15.00;14.00;;;;;17.65;73.00;101133.09;5076097;27;45250;-81
2023/09/27 05:21:44;;;;;;;;;17.33;14.00;;;;;17.45;73.30;101088.06;5075324;27;46091;-83
2023/09/27 05:24:09;;;;;;;;;15.33;13.33;;;;;17.57;73.52;101118.50;5075835;27;51082;-80
2023/09/27 05:26:35;;;;;;;;;14.67;13.00;;;;;17.49;74.19;101121.81;5074493;28;58165;-80
2023/09/27 05:29:02;;;;;;;;;12.67;12.67;;;;;17.36;74.22;101111.13;5074674;28;45619;-82
2023/09/27 05:31:28;;;;;;;;;14.00;14.00;;;;;17.40;74.69;101135.94;5075714;27;46025;-81
2023/09/27 05:33:53;;;;;;;;;15.00;12.00;;;;;17.30;74.79;101116.09;5076457;27;45415;-86
2023/09/27 05:36:19;;;;;;;;;15.00;13.67;;;;;17.36;75.06;101142.53;5076387;27;45421;-82
2023/09/27 05:38:44;;;;;;;;;16.67;14.00;;;;;17.28;75.05;101131.50;5077599;27;46092;-83
2023/09/27 05:41:10;;;;;;;;;13.00;11.00;;;;;17.24;75.29;101132.72;5075591;28;46147;-80
2023/09/27 05:43:36;;;;;;;;;16.00;16.00;;;;;17.22;75.29;101129.28;5060597;28;45367;-82
2023/09/27 05:46:01;;;;;;;;;17.67;14.33;;;;;17.28;75.10;101147.63;5059102;28;45337;-81
2023/09/27 05:48:28;;;;;;;;;17.00;16.00;;;;;17.35;75.56;101147.06;5078158;28;45369;-83
2023/09/27 05:50:54;;;;;;;;;15.67;13.67;;;;;17.28;75.76;101147.63;5080115;27;45434;-81
2023/09/27 05:53:19;;;;;;;;;16.33;16.33;;;;;17.36;75.38;101169.41;5079875;27;45448;-82
2023/09/27 05:55:46;;;;;;;;;19.00;17.33;;;;;17.38;75.35;101173.69;5078815;28;45338;-79
2023/09/27 05:58:11;;;;;;;;;18.33;15.33;;;;;16.91;74.72;101087.72;5079872;27;45324;-84
2023/09/27 06:00:42;;;;;;;;;16.67;13.67;;;;;16.91;74.85;101083.19;5079110;27;45326;-82
2023/09/27 06:03:08;;;;;;;;;15.00;15.00;;;;;17.34;74.53;101145.34;5079862;27;45410;-81
2023/09/27 06:05:34;;;;;;;;;18.33;17.67;;;;;17.33;74.49;101137.41;5079261;27;45340;-81
2023/09/27 06:07:59;;;;;;;;;16.00;16.00;;;;;17.58;74.09;101166.84;5080596;27;45631;-87
2023/09/27 06:10:25;;;;;;;;;15.00;13.67;;;;;17.55;73.69;101169.72;5084265;27;45998;-87
2023/09/27 06:12:50;;;;;;;;;17.00;14.67;;;;;17.57;73.52;101167.78;5085970;28;45323;-81
2023/09/27 06:15:17;;;;;;;;;14.00;12.67;;;;;17.62;73.59;101171.00;5085934;28;46445;-81
2023/09/27 06:17:43;;;;;;;;;16.67;16.00;;;;;17.57;73.57;101159.72;5088005;28;45242;-83
2023/09/27 06:20:19;;;;;;;;;17.00;15.00;;;;;17.74;73.66;101181.81;5086150;27;45390;-83
2023/09/27 06:22:52;;;;;;;;;20.33;16.67;;;;;17.82;73.12;101191.00;5082155;27;45184;-85
2023/09/27 06:25:18;;;;;;;;;16.67;15.00;;;;;17.80;72.52;101174.13;5066284;27;45450;-88
2023/09/27 06:27:44;;;;;;;;;17.67;15.67;;;;;17.86;72.52;101157.53;5077074;28;45406;-89
2023/09/27 06:30:14;;;;;;;;;17.00;16.00;;;;;17.99;72.08;101170.88;5067145;28;45378;-84
2023/09/27 06:32:40;;;;;;;;;20.67;18.00;;;;;18.14;71.67;101176.91;5062578;28;45420;-85
2023/09/27 06:35:12;;;;;;;;;14.33;14.00;;;;;18.10;71.39;101168.22;5065094;28;45448;-84
2023/09/27 06:37:43;;;;;;;;;18.33;17.33;;;;;18.16;71.41;101165.03;5072359;28;45248;-90
2023/09/27 06:40:13;;;;;;;;;19.00;18.00;;;;;18.08;71.17;101145.06;5070259;28;45310;-87
2023/09/27 06:42:39;;;;;;;;;20.67;17.00;;;;;18.42;70.90;101186.34;5075851;28;45194;-84
2023/09/27 06:45:06;;;;;;;;;20.67;17.67;;;;;18.46;70.51;101182.41;5079701;27;45318;-86
2023/09/27 06:47:35;;;;;;;;;16.67;14.67;;;;;18.52;70.68;101192.72;5073082;27;45484;-84
2023/09/27 06:50:02;;;;;;;;;16.00;14.67;;;;;18.09;70.18;101136.00;5053189;28;47424;-82
2023/09/27 06:52:29;;;;;;;;;18.00;17.33;;;;;18.57;70.02;101193.19;5061570;28;45259;-85
2023/09/27 06:54:54;;;;;;;;;16.00;16.00;;;;;18.75;69.61;101183.69;5077776;28;45412;-80
2023/09/27 06:57:20;;;;;;;;;20.00;16.00;;;;;18.96;68.73;101186.44;5092025;27;45461;-83
2023/09/27 06:59:45;;;;;;;;;15.67;15.33;;;;;18.99;68.38;101164.63;5076815;27;46063;-83
2023/09/27 07:02:11;;;;;;;;;18.67;17.33;;;;;19.09;67.88;101159.34;5059675;27;45481;-83
2023/09/27 07:04:38;;;;;;;;;18.33;16.00;;;;;19.22;67.37;101175.34;5058911;28;45361;-82
2023/09/27 07:07:04;;;;;;;;;19.00;17.67;;;;;19.08;66.85;101144.16;5069992;28;45514;-83
2023/09/27 07:09:32;;;;;;;;;18.33;17.33;;;;;19.37;66.82;101184.88;5077240;27;45495;-82
2023/09/27 07:11:58;;;;;;;;;16.33;15.00;;;;;19.45;66.62;101177.00;5062147;28;45348;-82
2023/09/27 07:14:23;;;;;;;;;16.67;16.67;;;;;19.18;66.67;101122.69;5073302;28;45318;-83
2023/09/27 07:16:49;;;;;;;;;18.67;18.67;;;;;19.71;66.07;101180.22;5057620;28;50353;-85
2023/09/27 07:19:15;;;;;;;;;22.33;20.00;;;;;19.63;65.72;101143.09;5065415;28;48104;-82
2023/09/27 07:21:41;;;;;;;;;20.33;16.67;;;;;19.74;65.49;101161.06;5077634;28;45449;-83
2023/09/27 07:24:09;;;;;;;;;19.67;17.00;;;;;19.85;65.56;101174.50;5062585;28;45341;-81
2023/09/27 07:26:35;;;;;;;;;19.33;16.67;;;;;19.76;65.23;101148.28;5071997;28;45386;-83
2023/09/27 07:29:00;;;;;;;;;19.00;16.67;;;;;19.82;65.32;101155.03;5061976;28;45656;-88
2023/09/27 07:31:26;;;;;;;;;19.00;19.00;;;;;19.84;65.47;101145.78;5067358;27;45377;-82
2023/09/27 07:33:55;;;;;;;;;21.67;19.33;;;;;20.02;64.76;101171.19;5068640;28;45306;-83
2023/09/27 07:36:24;;;;;;;;;19.00;17.00;;;;;19.97;64.69;101135.66;5076783;27;45628;-85
2023/09/27 07:38:50;;;;;;;;;18.33;18.33;;;;;20.33;64.07;101180.19;5076721;28;45419;-88
2023/09/27 07:41:16;;;;;;;;;21.00;19.33;;;;;20.15;63.55;101148.53;5066174;28;45370;-86
2023/09/27 07:43:42;;;;;;;;;19.67;18.33;;;;;20.15;63.81;101145.81;5060709;28;45386;-90
2023/09/27 07:46:08;;;;;;;;;15.67;15.67;;;;;20.34;63.67;101183.75;5064688;28;45635;-86
2023/09/27 07:48:35;;;;;;;;;24.33;20.33;;;;;20.36;63.61;101189.00;5070383;27;45349;-85
2023/09/27 07:51:02;;;;;;;;;23.67;21.67;;;;;20.13;63.20;101131.59;5058948;28;45683;-84
2023/09/27 07:53:28;;;;;;;;;29.67;24.00;;;;;20.40;63.41;101164.28;5063036;27;45480;-83
2023/09/27 07:55:55;;;;;;;;;21.67;20.67;;;;;20.19;62.97;101115.72;5062580;28;45527;-85
2023/09/27 07:58:21;;;;;;;;;21.67;19.00;;;;;20.48;62.30;101144.75;5068984;28;46168;-83
2023/09/27 08:00:46;;;;;;;;;18.00;18.00;;;;;20.44;62.55;101140.56;5058537;28;45480;-87
2023/09/27 08:03:13;;;;;;;;;20.33;18.67;;;;;20.58;62.44;101170.81;5060250;28;45376;-84
2023/09/27 08:05:45;;;;;;;;;23.67;18.33;;;;;20.42;62.13;101146.13;5066666;28;45225;-81
2023/09/27 08:08:11;;;;;;;;;16.67;16.67;;;;;20.44;62.71;101137.88;5058882;28;45326;-84
2023/09/27 08:10:43;;;;;;;;;19.00;19.00;;;;;20.52;62.52;101138.06;5064135;28;45276;-83
2023/09/27 08:13:18;;;;;;;;;20.00;20.00;;;;;20.82;62.41;101150.66;5069207;28;45420;-83
2023/09/27 08:15:47;;;;;;;;;19.67;17.67;;;;;20.92;61.42;101148.84;5075952;28;45363;-83
2023/09/27 08:18:13;;;;;;;;;18.33;17.33;;;;;20.97;61.24;101146.59;5062417;28;45928;-81
2023/09/27 08:20:39;;;;;;;;;18.67;18.67;;;;;21.06;61.38;101145.72;5072670;27;45428;-84
2023/09/27 08:23:05;;;;;;;;;20.33;20.33;;;;;21.10;61.02;101133.66;5073654;27;45819;-86
2023/09/27 08:25:30;;;;;;;;;19.00;19.00;;;;;20.97;60.69;101119.56;5065801;28;45505;-82
2023/09/27 08:28:01;;;;;;;;;27.00;22.67;;;;;21.10;60.53;101152.59;5053066;28;47620;-83
2023/09/27 08:30:26;;;;;;;;;20.67;20.67;;;;;20.86;60.75;101106.16;5058911;28;45410;-84
2023/09/27 08:32:52;;;;;;;;;24.67;20.00;;;;;20.98;60.82;101115.84;5056922;28;45389;-82
2023/09/27 08:35:18;;;;;;;;;20.00;18.33;;;;;20.91;60.65;101115.53;5074837;27;45380;-83
2023/09/27 08:37:43;;;;;;;;;21.00;20.00;;;;;21.12;60.38;101128.09;5073106;28;46166;-83
2023/09/27 08:40:12;;;;;;;;;23.33;21.33;;;;;21.18;60.10;101122.13;5065118;27;45397;-82
2023/09/27 08:42:39;;;;;;;;;22.67;21.00;;;;;21.24;59.59;101105.34;5055950;28;45466;-82
2023/09/27 08:45:09;;;;;;;;;22.00;22.00;;;;;21.30;59.58;101110.19;5070646;28;45656;-83
2023/09/27 08:47:34;;;;;;;;;20.00;19.33;;;;;21.34;59.69;101116.16;5066461;28;46473;-84
2023/09/27 08:50:00;;;;;;;;;20.67;17.67;;;;;21.32;59.58;101101.94;5073586;28;45756;-83
2023/09/27 08:52:29;;;;;;;;;18.67;18.67;;;;;21.41;58.93;101101.09;5073970;28;45470;-82
2023/09/27 08:54:55;;;;;;;;;15.33;14.00;;;;;21.46;58.89;101087.97;5073668;28;45470;-82
2023/09/27 08:57:23;;;;;;;;;20.33;17.00;;;;;21.44;58.52;101081.84;5065870;27;46098;-84
2023/09/27 08:59:48;;;;;;;;;21.00;16.33;;;;;21.38;58.15;101050.81;5068385;28;45404;-84
2023/09/27 09:02:14;;;;;;;;;19.67;16.33;;;;;21.34;58.57;101046.69;5074340;28;45310;-86
2023/09/27 09:04:40;;;;;;;;;16.67;16.67;;;;;21.53;58.18;101074.72;5074405;28;45677;-81
2023/09/27 09:07:06;;;;;;;;;17.33;15.67;;;;;21.53;58.05;101069.31;5068124;27;45443;-84
2023/09/27 09:09:33;;;;;;;;;18.00;14.67;;;;;21.35;58.15;101047.53;5055112;28;45859;-85
2023/09/27 09:12:08;;;;;;;;;14.00;14.00;;;;;21.44;58.37;101057.50;5070547;28;45433;-86
2023/09/27 09:14:39;;;;;;;;;17.33;16.00;;;;;21.40;58.18;101066.91;5060185;28;45510;-85
2023/09/27 09:17:07;;;;;;;;;16.00;15.00;;;;;21.44;58.71;101068.31;5078331;28;45327;-86
2023/09/27 09:19:32;;;;;;;;;13.33;12.33;;;;;21.37;57.93;101072.63;5081183;28;45536;-84
2023/09/27 09:22:04;;;;;;;;;18.33;15.00;;;;;21.04;58.40;101039.56;5079171;28;45464;-85
2023/09/27 09:24:32;;;;;;;;;15.00;13.67;;;;;21.19;58.43;101058.91;5060606;28;45985;-86
2023/09/27 09:27:15;;;;;;;;;15.33;14.33;;;;;21.28;58.78;101068.06;5064716;28;46138;-84
2023/09/27 09:29:52;;;;;;;;;13.00;12.00;;;;;21.26;58.70;101032.19;5076427;27;45479;-86
2023/09/27 09:32:21;;;;;;;;;13.67;13.67;;;;;21.37;58.51;101037.44;5077799;27;45397;-87
2023/09/27 09:34:50;;;;;;;;;12.33;11.00;;;;;21.45;58.14;101042.97;5084067;28;45544;-89
2023/09/27 09:37:29;;;;;;;;;14.67;12.67;;;;;21.56;57.93;101060.91;5069006;28;47395;-85
2023/09/27 09:40:14;;;;;;;;;13.33;12.33;;;;;21.61;57.40;101048.63;5090070;27;45870;-86
2023/09/27 09:42:41;;;;;;;;;16.67;15.67;;;;;21.84;56.72;101069.94;5069477;28;45451;-86
2023/09/27 09:45:10;;;;;;;;;16.00;11.33;;;;;21.93;56.47;101058.22;5058279;28;45710;-84
2023/09/27 09:47:43;;;;;;;;;12.33;12.00;;;;;21.86;55.69;101048.97;5061879;28;45735;-84
2023/09/27 09:50:17;;;;;;;;;16.00;14.67;;;;;22.03;55.97;101075.31;5060559;28;45560;-85
2023/09/27 09:52:53;;;;;;;;;14.33;12.00;;;;;22.03;55.51;101068.03;5073657;28;45426;-84
2023/09/27 09:55:21;;;;;;;;;14.33;12.33;;;;;22.05;55.32;101065.16;5066312;28;45410;-83
2023/09/27 09:57:55;;;;;;;;;15.67;13.33;;;;;22.12;55.67;101060.88;5077181;28;47564;-86
2023/09/27 10:00:27;;;;;;;;;13.33;13.33;;;;;22.15;55.35;101038.09;5066253;28;45511;-83
2023/09/27 10:03:04;;;;;;;;;14.00;11.67;;;;;22.23;55.77;101038.16;5089718;28;45508;-83
2023/09/27 10:05:39;;;;;;;;;15.33;15.00;;;;;22.31;55.00;101027.44;5073894;28;45406;-81
2023/09/27 10:08:07;;;;;;;;;12.33;12.33;;;;;22.52;55.01;101033.41;5071775;28;45759;-84
2023/09/27 10:10:34;;;;;;;;;8.67;8.67;;;;;22.58;53.95;101021.13;5059718;28;45535;-83
2023/09/27 10:13:04;;;;;;;;;14.67;12.33;;;;;22.48;54.51;101002.22;5080026;28;45861;-82
2023/09/27 10:15:33;;;;;;;;;14.67;11.67;;;;;22.68;54.05;101002.94;5078106;27;45554;-80
2023/09/27 10:18:23;;;;;;;;;9.33;9.33;;;;;22.92;53.77;101003.22;5079500;28;45614;-80
2023/09/27 10:21:05;;;;;;;;;11.33;11.33;;;;;23.02;53.08;100980.56;5061183;28;45512;-82
2023/09/27 10:23:39;;;;;;;;;10.00;10.00;;;;;23.23;52.42;100984.63;5068471;28;45533;-83
2023/09/27 10:26:26;;;;;;;;;9.00;9.00;;;;;23.47;52.05;100983.97;5074000;27;45472;-79
2023/09/27 10:29:00;;;;;;;;;11.33;9.00;;;;;23.77;51.22;100987.22;5061827;28;45334;-81
2023/09/27 10:31:26;;;;;;;;;10.00;10.00;;;;;24.02;51.20;100985.47;5076777;28;45457;-81
2023/09/27 10:33:51;;;;;;;;;9.00;9.00;;;;;24.32;49.78;100992.22;5062758;28;45471;-87
2023/09/27 10:36:19;;;;;;;;;8.75;7.75;;;;;24.64;49.30;100991.44;5067288;28;45471;-80
2023/09/27 10:38:45;;;;;;;;;14.50;13.00;;;;;25.01;49.14;100979.28;5072215;28;46190;-80
2023/09/27 10:41:33;;;;;;;;;14.00;9.50;;;;;25.39;47.28;100985.84;5056435;28;45902;-81
2023/09/27 10:43:59;;;;;;;;;10.25;8.75;;;;;25.57;46.73;100979.19;5049365;27;45511;-83
2023/09/27 10:46:25;;;;;;;;;10.00;10.00;;;;;25.89;45.80;100977.41;5059892;28;45982;-81
2023/09/27 10:48:54;;;;;;;;;10.50;9.25;;;;;26.00;45.42;100970.72;5065833;28;46576;-82
2023/09/27 10:51:22;;;;;;;;;10.40;9.00;;;;;26.29;45.01;100972.78;5069853;28;45616;-84
2023/09/27 10:53:48;;;;;;;;;11.00;9.00;;;;;26.55;44.26;100967.88;5060928;28;45381;-83
2023/09/27 10:56:15;;;;;;;;;10.00;8.00;;;;;26.52;43.46;100979.16;5075695;27;45477;-82
2023/09/27 10:58:44;;;;;;;;;10.75;10.75;;;;;26.34;44.29;100992.22;5065768;28;45347;-82
2023/09/27 11:01:11;;;;;;;;;10.00;10.00;;;;;26.39;44.45;100987.94;5079143;28;45581;-84
2023/09/27 11:03:39;;;;;;;;;13.25;10.25;;;;;26.51;43.79;100988.38;5085366;28;45436;-82
2023/09/27 11:06:11;;;;;;;;;13.25;10.00;;;;;26.69;43.36;100990.81;5089311;28;45432;-81
2023/09/27 11:08:37;;;;;;;;;9.25;7.50;;;;;26.74;43.49;100983.78;5072097;28;46553;-84
2023/09/27 11:11:06;;;;;;;;;8.75;7.00;;;;;26.69;42.75;100990.81;5088221;27;45069;-86